sensor_id;sensor_type;location;lat;lon;timestamp;pressure;altitude;pressure_sealevel;temperature;humidity
69060;BME280;56135;37.534;-122.308;2022-08-02T00:01:20;101354.19;;;23.15;51.55
69060;BME280;56135;37.534;-122.308;2022-08-02T00:03:46;101364.94;;;22.99;52.34
69060;BME280;56135;37.534;-122.308;2022-08-02T00:06:12;101363.44;;;22.78;52.06
69060;BME280;56135;37.534;-122.308;2022-08-02T00:08:38;101365.44;;;22.90;51.81
69060;BME280;56135;37.534;-122.308;2022-08-02T00:11:03;101360.06;;;23.06;52.76
69060;BME280;56135;37.534;-122.308;2022-08-02T00:13:29;101361.59;;;23.12;51.87
69060;BME280;56135;37.534;-122.308;2022-08-02T00:15:55;101366.59;;;23.02;52.78
69060;BME280;56135;37.534;-122.308;2022-08-02T00:18:21;101361.59;;;23.12;52.68
69060;BME280;56135;37.534;-122.308;2022-08-02T00:20:47;101362.38;;;23.14;53.16
69060;BME280;56135;37.534;-122.308;2022-08-02T00:23:12;101361.34;;;23.17;53.16
69060;BME280;56135;37.534;-122.308;2022-08-02T00:25:38;101353.44;;;23.29;53.53
69060;BME280;56135;37.534;-122.308;2022-08-02T00:28:04;101351.09;;;23.23;52.79
69060;BME280;56135;37.534;-122.308;2022-08-02T00:30:30;101363.00;;;23.19;52.27
69060;BME280;56135;37.534;-122.308;2022-08-02T00:32:55;101361.66;;;23.10;51.46
69060;BME280;56135;37.534;-122.308;2022-08-02T00:35:21;101368.16;;;23.06;51.15
69060;BME280;56135;37.534;-122.308;2022-08-02T00:37:47;101364.13;;;23.15;52.29
69060;BME280;56135;37.534;-122.308;2022-08-02T00:40:13;101364.44;;;23.09;51.93
69060;BME280;56135;37.534;-122.308;2022-08-02T00:42:39;101356.84;;;22.99;52.46
69060;BME280;56135;37.534;-122.308;2022-08-02T00:45:05;101366.44;;;23.05;53.12
69060;BME280;56135;37.534;-122.308;2022-08-02T00:47:31;101358.28;;;23.07;53.01
69060;BME280;56135;37.534;-122.308;2022-08-02T00:49:56;101360.34;;;23.02;52.63
69060;BME280;56135;37.534;-122.308;2022-08-02T00:52:22;101354.00;;;23.03;53.04
69060;BME280;56135;37.534;-122.308;2022-08-02T00:54:48;101346.53;;;23.08;53.54
69060;BME280;56135;37.534;-122.308;2022-08-02T00:57:14;101353.44;;;23.13;53.25
69060;BME280;56135;37.534;-122.308;2022-08-02T00:59:40;101348.66;;;23.19;53.39
69060;BME280;56135;37.534;-122.308;2022-08-02T01:02:06;101353.00;;;23.21;53.60
69060;BME280;56135;37.534;-122.308;2022-08-02T01:04:32;101345.06;;;23.18;52.97
69060;BME280;56135;37.534;-122.308;2022-08-02T01:06:59;101344.84;;;23.23;52.77
69060;BME280;56135;37.534;-122.308;2022-08-02T01:09:24;101343.69;;;23.27;53.00
69060;BME280;56135;37.534;-122.308;2022-08-02T01:11:51;101341.94;;;23.26;52.56
69060;BME280;56135;37.534;-122.308;2022-08-02T01:14:16;101341.72;;;23.30;52.99
69060;BME280;56135;37.534;-122.308;2022-08-02T01:17:02;101336.22;;;23.32;53.21
69060;BME280;56135;37.534;-122.308;2022-08-02T01:27:21;101322.56;;;23.35;52.79
69060;BME280;56135;37.534;-122.308;2022-08-02T01:29:55;101327.09;;;23.35;53.74
69060;BME280;56135;37.534;-122.308;2022-08-02T01:32:24;101323.78;;;23.29;53.67
69060;BME280;56135;37.534;-122.308;2022-08-02T01:34:58;101334.91;;;23.23;54.19
69060;BME280;56135;37.534;-122.308;2022-08-02T01:37:36;101329.88;;;23.17;54.23
69060;BME280;56135;37.534;-122.308;2022-08-02T01:40:05;101334.44;;;22.99;54.09
69060;BME280;56135;37.534;-122.308;2022-08-02T01:42:32;101333.91;;;22.92;54.43
69060;BME280;56135;37.534;-122.308;2022-08-02T01:44:59;101326.53;;;22.80;54.20
69060;BME280;56135;37.534;-122.308;2022-08-02T01:47:30;101331.63;;;22.69;54.17
69060;BME280;56135;37.534;-122.308;2022-08-02T01:49:57;101329.69;;;22.55;53.98
69060;BME280;56135;37.534;-122.308;2022-08-02T01:52:26;101318.34;;;22.48;54.84
69060;BME280;56135;37.534;-122.308;2022-08-02T01:54:55;101325.19;;;22.38;55.14
69060;BME280;56135;37.534;-122.308;2022-08-02T01:57:22;101325.97;;;22.22;55.04
69060;BME280;56135;37.534;-122.308;2022-08-02T01:59:49;101328.69;;;22.05;55.55
69060;BME280;56135;37.534;-122.308;2022-08-02T02:02:15;101324.41;;;22.01;56.04
69060;BME280;56135;37.534;-122.308;2022-08-02T02:04:42;101328.28;;;21.95;55.50
69060;BME280;56135;37.534;-122.308;2022-08-02T02:07:10;101322.88;;;21.95;55.19
69060;BME280;56135;37.534;-122.308;2022-08-02T02:09:37;101324.34;;;21.85;55.46
69060;BME280;56135;37.534;-122.308;2022-08-02T02:12:04;101318.06;;;21.84;55.89
69060;BME280;56135;37.534;-122.308;2022-08-02T02:14:30;101320.19;;;21.77;55.91
69060;BME280;56135;37.534;-122.308;2022-08-02T02:16:57;101328.59;;;21.71;55.96
69060;BME280;56135;37.534;-122.308;2022-08-02T02:19:24;101319.50;;;21.74;55.90
69060;BME280;56135;37.534;-122.308;2022-08-02T02:21:51;101324.06;;;21.72;55.87
69060;BME280;56135;37.534;-122.308;2022-08-02T02:24:16;101323.34;;;21.68;56.12
69060;BME280;56135;37.534;-122.308;2022-08-02T02:26:42;101322.41;;;21.69;56.39
69060;BME280;56135;37.534;-122.308;2022-08-02T02:29:10;101326.38;;;21.62;57.05
69060;BME280;56135;37.534;-122.308;2022-08-02T02:31:37;101325.66;;;21.58;57.42
69060;BME280;56135;37.534;-122.308;2022-08-02T02:34:48;101323.03;;;21.38;58.11
69060;BME280;56135;37.534;-122.308;2022-08-02T02:36:50;101320.00;;;21.26;58.67
69060;BME280;56135;37.534;-122.308;2022-08-02T02:39:17;101325.06;;;21.32;58.89
69060;BME280;56135;37.534;-122.308;2022-08-02T02:41:44;101314.31;;;21.32;58.92
69060;BME280;56135;37.534;-122.308;2022-08-02T02:44:12;101317.25;;;21.28;59.32
69060;BME280;56135;37.534;-122.308;2022-08-02T02:46:39;101320.22;;;21.22;59.57
69060;BME280;56135;37.534;-122.308;2022-08-02T02:49:06;101312.75;;;21.09;59.81
69060;BME280;56135;37.534;-122.308;2022-08-02T02:51:32;101308.47;;;21.05;60.35
69060;BME280;56135;37.534;-122.308;2022-08-02T02:53:59;101306.16;;;20.97;60.27
69060;BME280;56135;37.534;-122.308;2022-08-02T02:56:24;101308.94;;;20.96;60.06
69060;BME280;56135;37.534;-122.308;2022-08-02T02:58:50;101311.97;;;20.88;60.06
69060;BME280;56135;37.534;-122.308;2022-08-02T03:01:19;101314.88;;;20.83;60.04
69060;BME280;56135;37.534;-122.308;2022-08-02T03:04:01;101317.78;;;20.79;60.23
69060;BME280;56135;37.534;-122.308;2022-08-02T03:06:27;101311.81;;;20.72;59.89
69060;BME280;56135;37.534;-122.308;2022-08-02T03:08:54;101315.50;;;20.70;60.02
69060;BME280;56135;37.534;-122.308;2022-08-02T03:11:20;101328.38;;;20.61;60.10
69060;BME280;56135;37.534;-122.308;2022-08-02T03:13:46;101312.81;;;20.49;60.61
69060;BME280;56135;37.534;-122.308;2022-08-02T03:16:12;101314.13;;;20.40;61.10
69060;BME280;56135;37.534;-122.308;2022-08-02T03:18:39;101311.53;;;20.39;60.74
69060;BME280;56135;37.534;-122.308;2022-08-02T03:21:09;101310.69;;;20.37;61.04
69060;BME280;56135;37.534;-122.308;2022-08-02T03:23:38;101303.00;;;20.29;61.51
69060;BME280;56135;37.534;-122.308;2022-08-02T03:26:05;101312.34;;;20.20;61.51
69060;BME280;56135;37.534;-122.308;2022-08-02T03:28:31;101309.91;;;20.14;61.93
69060;BME280;56135;37.534;-122.308;2022-08-02T03:30:57;101317.38;;;20.07;61.93
69060;BME280;56135;37.534;-122.308;2022-08-02T03:33:23;101318.63;;;19.98;62.10
69060;BME280;56135;37.534;-122.308;2022-08-02T03:35:50;101323.53;;;19.89;62.41
69060;BME280;56135;37.534;-122.308;2022-08-02T03:38:17;101314.66;;;19.87;63.13
69060;BME280;56135;37.534;-122.308;2022-08-02T03:40:44;101318.41;;;19.82;62.52
69060;BME280;56135;37.534;-122.308;2022-08-02T03:43:10;101324.88;;;19.77;62.49
69060;BME280;56135;37.534;-122.308;2022-08-02T03:45:43;101320.72;;;19.70;63.15
69060;BME280;56135;37.534;-122.308;2022-08-02T03:48:14;101321.91;;;19.62;63.31
69060;BME280;56135;37.534;-122.308;2022-08-02T03:50:41;101318.53;;;19.57;63.52
69060;BME280;56135;37.534;-122.308;2022-08-02T03:53:07;101314.38;;;19.50;64.13
69060;BME280;56135;37.534;-122.308;2022-08-02T03:55:36;101312.25;;;19.36;65.02
69060;BME280;56135;37.534;-122.308;2022-08-02T03:58:02;101316.88;;;19.32;64.75
69060;BME280;56135;37.534;-122.308;2022-08-02T04:00:27;101313.59;;;19.26;64.99
69060;BME280;56135;37.534;-122.308;2022-08-02T04:02:53;101318.25;;;19.21;65.39
69060;BME280;56135;37.534;-122.308;2022-08-02T04:05:19;101317.63;;;19.14;65.24
69060;BME280;56135;37.534;-122.308;2022-08-02T04:07:45;101319.59;;;19.09;65.62
69060;BME280;56135;37.534;-122.308;2022-08-02T04:10:13;101322.44;;;19.04;65.75
69060;BME280;56135;37.534;-122.308;2022-08-02T04:12:39;101324.50;;;18.97;66.01
69060;BME280;56135;37.534;-122.308;2022-08-02T04:15:05;101321.34;;;18.86;67.02
69060;BME280;56135;37.534;-122.308;2022-08-02T04:17:32;101327.84;;;18.79;66.93
69060;BME280;56135;37.534;-122.308;2022-08-02T04:20:10;101327.03;;;18.77;67.08
69060;BME280;56135;37.534;-122.308;2022-08-02T04:22:38;101327.06;;;18.75;67.09
69060;BME280;56135;37.534;-122.308;2022-08-02T04:25:05;101326.63;;;18.64;68.21
69060;BME280;56135;37.534;-122.308;2022-08-02T04:27:33;101325.06;;;18.58;67.66
69060;BME280;56135;37.534;-122.308;2022-08-02T04:30:00;101330.41;;;18.58;68.42
69060;BME280;56135;37.534;-122.308;2022-08-02T04:32:26;101327.75;;;18.57;68.90
69060;BME280;56135;37.534;-122.308;2022-08-02T04:34:52;101330.09;;;18.42;69.94
69060;BME280;56135;37.534;-122.308;2022-08-02T04:37:19;101328.28;;;18.43;69.25
69060;BME280;56135;37.534;-122.308;2022-08-02T04:39:45;101335.44;;;18.42;68.97
69060;BME280;56135;37.534;-122.308;2022-08-02T04:42:18;101339.97;;;18.40;69.43
69060;BME280;56135;37.534;-122.308;2022-08-02T04:44:44;101339.31;;;18.33;69.58
69060;BME280;56135;37.534;-122.308;2022-08-02T04:47:10;101342.13;;;18.30;69.40
69060;BME280;56135;37.534;-122.308;2022-08-02T04:49:36;101340.34;;;18.29;70.23
69060;BME280;56135;37.534;-122.308;2022-08-02T04:52:01;101336.84;;;18.27;69.88
69060;BME280;56135;37.534;-122.308;2022-08-02T04:54:27;101339.75;;;18.21;70.63
69060;BME280;56135;37.534;-122.308;2022-08-02T04:56:53;101340.03;;;18.13;70.09
69060;BME280;56135;37.534;-122.308;2022-08-02T04:59:19;101338.34;;;18.11;70.09
69060;BME280;56135;37.534;-122.308;2022-08-02T05:01:44;101336.75;;;18.05;70.22
69060;BME280;56135;37.534;-122.308;2022-08-02T05:04:10;101343.13;;;18.01;70.19
69060;BME280;56135;37.534;-122.308;2022-08-02T05:06:36;101341.44;;;17.98;70.82
69060;BME280;56135;37.534;-122.308;2022-08-02T05:09:02;101347.88;;;17.91;71.14
69060;BME280;56135;37.534;-122.308;2022-08-02T05:11:28;101340.16;;;17.82;70.89
69060;BME280;56135;37.534;-122.308;2022-08-02T05:13:54;101344.53;;;17.84;70.56
69060;BME280;56135;37.534;-122.308;2022-08-02T05:16:20;101343.81;;;17.79;70.76
69060;BME280;56135;37.534;-122.308;2022-08-02T05:18:45;101342.94;;;17.79;70.46
69060;BME280;56135;37.534;-122.308;2022-08-02T05:21:11;101351.88;;;17.78;70.37
69060;BME280;56135;37.534;-122.308;2022-08-02T05:23:37;101347.50;;;17.75;70.13
69060;BME280;56135;37.534;-122.308;2022-08-02T05:26:03;101348.38;;;17.76;70.93
69060;BME280;56135;37.534;-122.308;2022-08-02T05:28:28;101344.94;;;17.72;70.85
69060;BME280;56135;37.534;-122.308;2022-08-02T05:30:54;101348.59;;;17.70;70.20
69060;BME280;56135;37.534;-122.308;2022-08-02T05:33:20;101354.00;;;17.68;70.49
69060;BME280;56135;37.534;-122.308;2022-08-02T05:35:46;101350.66;;;17.61;70.45
69060;BME280;56135;37.534;-122.308;2022-08-02T05:38:12;101355.31;;;17.55;70.22
69060;BME280;56135;37.534;-122.308;2022-08-02T05:40:38;101345.63;;;17.52;70.04
69060;BME280;56135;37.534;-122.308;2022-08-02T05:43:13;101343.06;;;17.47;70.56
69060;BME280;56135;37.534;-122.308;2022-08-02T05:45:40;101352.09;;;17.43;70.13
69060;BME280;56135;37.534;-122.308;2022-08-02T05:48:06;101347.84;;;17.38;71.29
69060;BME280;56135;37.534;-122.308;2022-08-02T05:50:33;101348.94;;;17.30;71.56
69060;BME280;56135;37.534;-122.308;2022-08-02T05:55:47;101353.72;;;17.21;71.43
69060;BME280;56135;37.534;-122.308;2022-08-02T05:58:20;101360.13;;;17.15;71.31
69060;BME280;56135;37.534;-122.308;2022-08-02T06:00:49;101357.72;;;17.06;72.13
69060;BME280;56135;37.534;-122.308;2022-08-02T06:08:19;101367.88;;;16.93;72.91
69060;BME280;56135;37.534;-122.308;2022-08-02T06:10:45;101363.50;;;16.90;72.88
69060;BME280;56135;37.534;-122.308;2022-08-02T06:13:14;101360.88;;;16.89;72.92
69060;BME280;56135;37.534;-122.308;2022-08-02T06:15:43;101355.69;;;16.82;73.29
69060;BME280;56135;37.534;-122.308;2022-08-02T06:18:09;101356.66;;;16.80;73.42
69060;BME280;56135;37.534;-122.308;2022-08-02T06:20:35;101358.50;;;16.78;73.62
69060;BME280;56135;37.534;-122.308;2022-08-02T06:23:02;101359.53;;;16.74;74.32
69060;BME280;56135;37.534;-122.308;2022-08-02T06:25:29;101363.16;;;16.71;74.69
69060;BME280;56135;37.534;-122.308;2022-08-02T06:27:55;101373.03;;;16.67;74.39
69060;BME280;56135;37.534;-122.308;2022-08-02T06:30:21;101368.69;;;16.63;74.41
69060;BME280;56135;37.534;-122.308;2022-08-02T06:32:48;101365.13;;;16.63;74.56
69060;BME280;56135;37.534;-122.308;2022-08-02T06:35:15;101368.81;;;16.59;74.60
69060;BME280;56135;37.534;-122.308;2022-08-02T06:37:47;101372.44;;;16.56;74.54
69060;BME280;56135;37.534;-122.308;2022-08-02T06:40:31;101366.34;;;16.51;74.28
69060;BME280;56135;37.534;-122.308;2022-08-02T06:43:01;101365.53;;;16.49;74.52
69060;BME280;56135;37.534;-122.308;2022-08-02T06:45:30;101359.53;;;16.41;74.79
69060;BME280;56135;37.534;-122.308;2022-08-02T06:47:56;101367.56;;;16.39;74.98
69060;BME280;56135;37.534;-122.308;2022-08-02T06:50:22;101364.09;;;16.37;75.57
69060;BME280;56135;37.534;-122.308;2022-08-02T06:52:48;101373.13;;;16.31;75.39
69060;BME280;56135;37.534;-122.308;2022-08-02T06:55:14;101380.38;;;16.26;74.91
69060;BME280;56135;37.534;-122.308;2022-08-02T06:57:39;101373.28;;;16.25;76.15
69060;BME280;56135;37.534;-122.308;2022-08-02T07:00:05;101371.72;;;16.18;75.75
69060;BME280;56135;37.534;-122.308;2022-08-02T07:02:33;101373.53;;;16.16;75.74
69060;BME280;56135;37.534;-122.308;2022-08-02T07:05:00;101374.44;;;16.15;75.06
69060;BME280;56135;37.534;-122.308;2022-08-02T07:07:26;101379.00;;;16.10;75.39
69060;BME280;56135;37.534;-122.308;2022-08-02T07:09:52;101380.84;;;16.08;75.72
69060;BME280;56135;37.534;-122.308;2022-08-02T07:12:18;101377.38;;;16.04;75.61
69060;BME280;56135;37.534;-122.308;2022-08-02T07:14:44;101375.72;;;16.00;76.35
69060;BME280;56135;37.534;-122.308;2022-08-02T07:17:10;101388.22;;;15.96;76.03
69060;BME280;56135;37.534;-122.308;2022-08-02T07:19:36;101382.06;;;15.94;76.04
69060;BME280;56135;37.534;-122.308;2022-08-02T07:22:02;101384.78;;;15.91;76.61
69060;BME280;56135;37.534;-122.308;2022-08-02T07:24:28;101389.34;;;15.88;76.95
69060;BME280;56135;37.534;-122.308;2022-08-02T07:26:54;101376.22;;;15.78;77.27
69060;BME280;56135;37.534;-122.308;2022-08-02T07:29:19;101385.97;;;15.78;77.22
69060;BME280;56135;37.534;-122.308;2022-08-02T07:31:45;101388.69;;;15.76;77.42
69060;BME280;56135;37.534;-122.308;2022-08-02T07:34:11;101393.28;;;15.70;77.48
69060;BME280;56135;37.534;-122.308;2022-08-02T07:36:37;101387.09;;;15.67;77.11
69060;BME280;56135;37.534;-122.308;2022-08-02T07:39:02;101391.63;;;15.65;77.18
69060;BME280;56135;37.534;-122.308;2022-08-02T07:41:28;101389.94;;;15.61;77.94
69060;BME280;56135;37.534;-122.308;2022-08-02T07:43:54;101387.31;;;15.58;79.17
69060;BME280;56135;37.534;-122.308;2022-08-02T07:46:20;101388.31;;;15.54;78.48
69060;BME280;56135;37.534;-122.308;2022-08-02T07:48:46;101382.22;;;15.50;77.97
69060;BME280;56135;37.534;-122.308;2022-08-02T07:51:13;101388.41;;;15.51;78.26
69060;BME280;56135;37.534;-122.308;2022-08-02T07:53:39;101377.81;;;15.48;77.89
69060;BME280;56135;37.534;-122.308;2022-08-02T07:56:04;101379.63;;;15.46;78.40
69060;BME280;56135;37.534;-122.308;2022-08-02T07:58:30;101377.06;;;15.43;78.31
69060;BME280;56135;37.534;-122.308;2022-08-02T08:00:56;101385.09;;;15.41;78.17
69060;BME280;56135;37.534;-122.308;2022-08-02T08:03:22;101384.25;;;15.38;78.49
69060;BME280;56135;37.534;-122.308;2022-08-02T08:05:48;101382.63;;;15.32;78.03
69060;BME280;56135;37.534;-122.308;2022-08-02T08:08:14;101382.63;;;15.30;78.54
69060;BME280;56135;37.534;-122.308;2022-08-02T08:10:39;101388.94;;;15.28;78.18
69060;BME280;56135;37.534;-122.308;2022-08-02T08:13:05;101386.28;;;15.26;78.17
69060;BME280;56135;37.534;-122.308;2022-08-02T08:15:31;101377.50;;;15.21;78.42
69060;BME280;56135;37.534;-122.308;2022-08-02T08:17:57;101377.59;;;15.18;78.32
69060;BME280;56135;37.534;-122.308;2022-08-02T08:20:23;101374.09;;;15.16;78.61
69060;BME280;56135;37.534;-122.308;2022-08-02T08:22:48;101377.66;;;15.15;78.62
69060;BME280;56135;37.534;-122.308;2022-08-02T08:25:14;101377.66;;;15.15;79.03
69060;BME280;56135;37.534;-122.308;2022-08-02T08:27:47;101369.69;;;15.15;79.15
69060;BME280;56135;37.534;-122.308;2022-08-02T08:30:13;101375.00;;;15.15;79.23
69060;BME280;56135;37.534;-122.308;2022-08-02T08:32:39;101372.34;;;15.15;78.99
69060;BME280;56135;37.534;-122.308;2022-08-02T08:35:05;101365.19;;;15.17;79.25
69060;BME280;56135;37.534;-122.308;2022-08-02T08:37:35;101370.50;;;15.17;79.34
69060;BME280;56135;37.534;-122.308;2022-08-02T08:40:02;101370.50;;;15.17;79.28
69060;BME280;56135;37.534;-122.308;2022-08-02T08:42:29;101379.38;;;15.17;78.90
69060;BME280;56135;37.534;-122.308;2022-08-02T08:44:55;101379.38;;;15.17;79.29
69060;BME280;56135;37.534;-122.308;2022-08-02T08:47:21;101378.50;;;15.17;79.69
69060;BME280;56135;37.534;-122.308;2022-08-02T08:49:48;101383.81;;;15.17;79.82
69060;BME280;56135;37.534;-122.308;2022-08-02T08:52:15;101378.69;;;15.48;80.43
69060;BME280;56135;37.534;-122.308;2022-08-02T08:54:44;101383.41;;;15.75;79.44
69060;BME280;56135;37.534;-122.308;2022-08-02T08:57:12;101377.03;;;15.82;79.09
69060;BME280;56135;37.534;-122.308;2022-08-02T08:59:38;101381.38;;;15.86;79.42
69060;BME280;56135;37.534;-122.308;2022-08-02T09:02:04;101377.94;;;15.79;78.90
69060;BME280;56135;37.534;-122.308;2022-08-02T09:04:30;101388.88;;;15.68;78.79
69060;BME280;56135;37.534;-122.308;2022-08-02T09:06:56;101384.63;;;15.61;79.39
69060;BME280;56135;37.534;-122.308;2022-08-02T09:09:22;101384.75;;;15.55;79.13
69060;BME280;56135;37.534;-122.308;2022-08-02T09:11:48;101386.69;;;15.48;79.08
69060;BME280;56135;37.534;-122.308;2022-08-02T09:14:24;101385.91;;;15.43;79.33
69060;BME280;56135;37.534;-122.308;2022-08-02T09:16:50;101390.50;;;15.37;79.31
69060;BME280;56135;37.534;-122.308;2022-08-02T09:19:17;101387.94;;;15.30;79.53
69060;BME280;56135;37.534;-122.308;2022-08-02T09:21:44;101393.34;;;15.27;79.64
69060;BME280;56135;37.534;-122.308;2022-08-02T09:24:17;101390.75;;;15.26;81.17
69060;BME280;56135;37.534;-122.308;2022-08-02T09:26:43;101394.41;;;15.20;80.83
69060;BME280;56135;37.534;-122.308;2022-08-02T09:29:09;101390.06;;;15.16;80.40
69060;BME280;56135;37.534;-122.308;2022-08-02T09:31:35;101396.34;;;15.12;80.28
69060;BME280;56135;37.534;-122.308;2022-08-02T09:34:01;101392.91;;;15.08;81.13
69060;BME280;56135;37.534;-122.308;2022-08-02T09:36:35;101395.78;;;14.97;81.54
69060;BME280;56135;37.534;-122.308;2022-08-02T09:39:03;101393.16;;;14.94;81.72
69060;BME280;56135;37.534;-122.308;2022-08-02T09:41:30;101395.91;;;14.91;81.33
69060;BME280;56135;37.534;-122.308;2022-08-02T09:43:56;101391.53;;;14.89;82.21
69060;BME280;56135;37.534;-122.308;2022-08-02T09:46:23;101393.34;;;14.85;82.17
69060;BME280;56135;37.534;-122.308;2022-08-02T09:48:50;101396.09;;;14.82;81.72
69060;BME280;56135;37.534;-122.308;2022-08-02T09:51:38;101398.78;;;14.80;81.55
69060;BME280;56135;37.534;-122.308;2022-08-02T09:54:07;101397.97;;;14.77;81.35
69060;BME280;56135;37.534;-122.308;2022-08-02T09:56:42;101395.34;;;14.75;81.63
69060;BME280;56135;37.534;-122.308;2022-08-02T09:59:08;101398.97;;;14.71;81.44
69060;BME280;56135;37.534;-122.308;2022-08-02T10:01:34;101394.63;;;14.67;81.71
69060;BME280;56135;37.534;-122.308;2022-08-02T10:04:05;101394.66;;;14.64;81.74
69060;BME280;56135;37.534;-122.308;2022-08-02T10:06:31;101399.16;;;14.60;81.64
69060;BME280;56135;37.534;-122.308;2022-08-02T10:08:57;101400.94;;;14.58;81.91
69060;BME280;56135;37.534;-122.308;2022-08-02T10:11:24;101405.44;;;14.55;82.88
69060;BME280;56135;37.534;-122.308;2022-08-02T10:13:50;101410.84;;;14.50;82.51
69060;BME280;56135;37.534;-122.308;2022-08-02T10:16:18;101410.00;;;14.48;82.50
69060;BME280;56135;37.534;-122.308;2022-08-02T10:18:48;101400.28;;;14.45;83.48
69060;BME280;56135;37.534;-122.308;2022-08-02T10:21:27;101398.59;;;14.41;82.84
69060;BME280;56135;37.534;-122.308;2022-08-02T10:24:05;101403.94;;;14.40;82.82
69060;BME280;56135;37.534;-122.308;2022-08-02T10:26:31;101403.13;;;14.38;82.52
69060;BME280;56135;37.534;-122.308;2022-08-02T10:28:57;101399.59;;;14.35;82.70
69060;BME280;56135;37.534;-122.308;2022-08-02T10:31:24;101393.41;;;14.33;82.56
69060;BME280;56135;37.534;-122.308;2022-08-02T10:33:51;101393.50;;;14.29;82.88
69060;BME280;56135;37.534;-122.308;2022-08-02T10:36:18;101401.56;;;14.26;82.82
69060;BME280;56135;37.534;-122.308;2022-08-02T10:38:47;101398.94;;;14.23;82.79
69060;BME280;56135;37.534;-122.308;2022-08-02T10:41:13;101398.06;;;14.22;82.61
69060;BME280;56135;37.534;-122.308;2022-08-02T10:43:43;101398.13;;;14.19;82.57
69060;BME280;56135;37.534;-122.308;2022-08-02T10:54:19;101403.59;;;14.10;83.31
69060;BME280;56135;37.534;-122.308;2022-08-02T10:56:46;101411.56;;;14.08;82.89
69060;BME280;56135;37.534;-122.308;2022-08-02T11:01:50;101420.50;;;14.04;83.00
69060;BME280;56135;37.534;-122.308;2022-08-02T11:04:17;101419.63;;;14.04;83.00
69060;BME280;56135;37.534;-122.308;2022-08-02T11:09:28;101413.41;;;14.03;82.77
69060;BME280;56135;37.534;-122.308;2022-08-02T11:12:03;101417.88;;;14.02;82.84
69060;BME280;56135;37.534;-122.308;2022-08-02T11:14:30;101412.56;;;14.02;83.16
69060;BME280;56135;37.534;-122.308;2022-08-02T11:19:24;101410.84;;;13.98;83.32
69060;BME280;56135;37.534;-122.308;2022-08-02T11:24:35;101415.28;;;13.96;83.49
69060;BME280;56135;37.534;-122.308;2022-08-02T11:27:05;101416.25;;;13.92;83.29
69060;BME280;56135;37.534;-122.308;2022-08-02T11:29:32;101419.84;;;13.91;82.96
69060;BME280;56135;37.534;-122.308;2022-08-02T11:31:58;101412.78;;;13.87;83.17
69060;BME280;56135;37.534;-122.308;2022-08-02T11:34:24;101411.06;;;13.86;83.06
69060;BME280;56135;37.534;-122.308;2022-08-02T11:36:50;101413.75;;;13.83;83.33
69060;BME280;56135;37.534;-122.308;2022-08-02T11:39:17;101422.63;;;13.80;83.34
69060;BME280;56135;37.534;-122.308;2022-08-02T11:41:49;101423.63;;;13.75;83.47
69060;BME280;56135;37.534;-122.308;2022-08-02T11:44:16;101435.16;;;13.72;83.43
69060;BME280;56135;37.534;-122.308;2022-08-02T11:46:42;101434.28;;;13.72;83.93
69060;BME280;56135;37.534;-122.308;2022-08-02T11:49:15;101424.63;;;13.67;84.11
69060;BME280;56135;37.534;-122.308;2022-08-02T11:51:50;101441.44;;;13.66;83.88
69060;BME280;56135;37.534;-122.308;2022-08-02T11:54:27;101437.91;;;13.64;83.76
69060;BME280;56135;37.534;-122.308;2022-08-02T11:56:54;101438.84;;;13.62;83.81
69060;BME280;56135;37.534;-122.308;2022-08-02T11:59:20;101442.41;;;13.61;83.80
69060;BME280;56135;37.534;-122.308;2022-08-02T12:01:46;101435.34;;;13.60;83.61
69060;BME280;56135;37.534;-122.308;2022-08-02T12:04:16;101443.34;;;13.58;83.59
69060;BME280;56135;37.534;-122.308;2022-08-02T12:06:42;101445.13;;;13.56;83.80
69060;BME280;56135;37.534;-122.308;2022-08-02T12:09:09;101444.25;;;13.56;84.25
69060;BME280;56135;37.534;-122.308;2022-08-02T12:11:36;101432.78;;;13.52;84.28
69060;BME280;56135;37.534;-122.308;2022-08-02T12:14:02;101441.69;;;13.49;84.03
69060;BME280;56135;37.534;-122.308;2022-08-02T12:16:32;101451.44;;;13.46;84.67
69060;BME280;56135;37.534;-122.308;2022-08-02T12:19:17;101447.97;;;13.42;84.60
69060;BME280;56135;37.534;-122.308;2022-08-02T12:21:43;101447.09;;;13.42;84.87
69060;BME280;56135;37.534;-122.308;2022-08-02T12:24:09;101444.47;;;13.39;85.13
69060;BME280;56135;37.534;-122.308;2022-08-02T12:26:42;101441.81;;;13.39;85.34
69060;BME280;56135;37.534;-122.308;2022-08-02T12:29:08;101446.25;;;13.38;85.05
69060;BME280;56135;37.534;-122.308;2022-08-02T12:31:41;101449.81;;;13.32;84.94
69060;BME280;56135;37.534;-122.308;2022-08-02T12:34:12;101454.25;;;13.33;84.77
69060;BME280;56135;37.534;-122.308;2022-08-02T12:36:39;101456.03;;;13.30;84.88
69060;BME280;56135;37.534;-122.308;2022-08-02T12:39:09;101448.13;;;13.28;85.05
69060;BME280;56135;37.534;-122.308;2022-08-02T12:41:35;101441.06;;;13.26;85.02
69060;BME280;56135;37.534;-122.308;2022-08-02T12:44:01;101450.81;;;13.25;84.68
69060;BME280;56135;37.534;-122.308;2022-08-02T12:46:27;101451.75;;;13.21;84.66
69060;BME280;56135;37.534;-122.308;2022-08-02T12:48:53;101440.28;;;13.17;84.95
69060;BME280;56135;37.534;-122.308;2022-08-02T12:51:23;101456.22;;;13.17;84.79
69060;BME280;56135;37.534;-122.308;2022-08-02T12:53:50;101448.31;;;13.14;85.42
69060;BME280;56135;37.534;-122.308;2022-08-02T12:59:10;101448.31;;;13.11;84.90